sensor_id;sensor_type;location;lat;lon;timestamp;temperature;humidity
25688;DHT22;17407;51.120;3.702;2023-07-13T00:00:21;16.80;99.90
25688;DHT22;17407;51.120;3.702;2023-07-13T00:02:47;16.80;99.90
25688;DHT22;17407;51.120;3.702;2023-07-13T00:05:13;16.70;99.90
25688;DHT22;17407;51.120;3.702;2023-07-13T00:07:38;16.80;99.90
25688;DHT22;17407;51.120;3.702;2023-07-13T00:10:04;16.90;99.90
25688;DHT22;17407;51.120;3.702;2023-07-13T00:12:33;16.80;99.90
25688;DHT22;17407;51.120;3.702;2023-07-13T00:15:01;16.70;99.90
25688;DHT22;17407;51.120;3.702;2023-07-13T00:17:28;16.60;99.90
25688;DHT22;17407;51.120;3.702;2023-07-13T00:19:56;16.70;99.90
25688;DHT22;17407;51.120;3.702;2023-07-13T00:22:22;16.70;99.90
25688;DHT22;17407;51.120;3.702;2023-07-13T00:24:49;16.70;99.90
25688;DHT22;17407;51.120;3.702;2023-07-13T00:27:16;16.50;99.90
25688;DHT22;17407;51.120;3.702;2023-07-13T00:29:43;16.50;99.90
25688;DHT22;17407;51.120;3.702;2023-07-13T00:32:09;16.50;99.90
25688;DHT22;17407;51.120;3.702;2023-07-13T00:34:35;16.40;99.90
25688;DHT22;17407;51.120;3.702;2023-07-13T00:37:00;16.60;99.90
25688;DHT22;17407;51.120;3.702;2023-07-13T00:39:26;16.60;99.90
25688;DHT22;17407;51.120;3.702;2023-07-13T00:41:52;16.50;99.90
25688;DHT22;17407;51.120;3.702;2023-07-13T00:44:19;16.50;99.90
25688;DHT22;17407;51.120;3.702;2023-07-13T00:46:45;16.60;99.90
25688;DHT22;17407;51.120;3.702;2023-07-13T00:49:14;16.50;99.90
25688;DHT22;17407;51.120;3.702;2023-07-13T00:51:56;16.50;99.90
25688;DHT22;17407;51.120;3.702;2023-07-13T00:54:43;16.40;99.90
25688;DHT22;17407;51.120;3.702;2023-07-13T00:57:14;16.40;99.90
25688;DHT22;17407;51.120;3.702;2023-07-13T00:59:43;16.30;99.90
25688;DHT22;17407;51.120;3.702;2023-07-13T01:02:10;16.30;99.90
25688;DHT22;17407;51.120;3.702;2023-07-13T01:04:37;16.20;99.90
25688;DHT22;17407;51.120;3.702;2023-07-13T01:07:04;16.20;99.90
25688;DHT22;17407;51.120;3.702;2023-07-13T01:09:31;16.20;99.90
25688;DHT22;17407;51.120;3.702;2023-07-13T01:11:57;16.30;99.90
25688;DHT22;17407;51.120;3.702;2023-07-13T01:14:23;16.50;99.90
25688;DHT22;17407;51.120;3.702;2023-07-13T01:16:49;16.50;99.90
25688;DHT22;17407;51.120;3.702;2023-07-13T01:19:41;16.40;99.90
25688;DHT22;17407;51.120;3.702;2023-07-13T01:22:16;16.30;99.90
25688;DHT22;17407;51.120;3.702;2023-07-13T01:24:42;16.20;99.90
25688;DHT22;17407;51.120;3.702;2023-07-13T01:27:09;16.10;99.90
25688;DHT22;17407;51.120;3.702;2023-07-13T01:29:37;16.20;99.90
25688;DHT22;17407;51.120;3.702;2023-07-13T01:32:12;16.30;99.90
25688;DHT22;17407;51.120;3.702;2023-07-13T01:34:38;16.20;99.90
25688;DHT22;17407;51.120;3.702;2023-07-13T01:37:09;16.20;99.90
25688;DHT22;17407;51.120;3.702;2023-07-13T01:39:34;16.10;99.90
25688;DHT22;17407;51.120;3.702;2023-07-13T01:42:00;16.00;99.90
25688;DHT22;17407;51.120;3.702;2023-07-13T01:44:26;16.10;99.90
25688;DHT22;17407;51.120;3.702;2023-07-13T01:46:52;16.10;99.90
25688;DHT22;17407;51.120;3.702;2023-07-13T01:49:17;16.10;99.90
25688;DHT22;17407;51.120;3.702;2023-07-13T01:51:43;16.00;99.90
25688;DHT22;17407;51.120;3.702;2023-07-13T01:54:08;16.00;99.90
25688;DHT22;17407;51.120;3.702;2023-07-13T01:56:34;16.10;99.90
25688;DHT22;17407;51.120;3.702;2023-07-13T01:59:00;16.10;99.90
25688;DHT22;17407;51.120;3.702;2023-07-13T02:01:26;16.10;99.90
25688;DHT22;17407;51.120;3.702;2023-07-13T02:03:52;16.10;99.90
25688;DHT22;17407;51.120;3.702;2023-07-13T02:06:18;16.20;99.90
25688;DHT22;17407;51.120;3.702;2023-07-13T02:08:44;16.30;99.90
25688;DHT22;17407;51.120;3.702;2023-07-13T02:11:10;16.30;99.90
25688;DHT22;17407;51.120;3.702;2023-07-13T02:13:35;16.30;99.90
25688;DHT22;17407;51.120;3.702;2023-07-13T02:16:01;16.30;99.90
25688;DHT22;17407;51.120;3.702;2023-07-13T02:18:27;16.30;99.90
25688;DHT22;17407;51.120;3.702;2023-07-13T02:20:52;16.20;99.90
25688;DHT22;17407;51.120;3.702;2023-07-13T02:23:18;16.20;99.90
25688;DHT22;17407;51.120;3.702;2023-07-13T02:25:44;16.10;99.90
25688;DHT22;17407;51.120;3.702;2023-07-13T02:28:10;16.10;99.90
25688;DHT22;17407;51.120;3.702;2023-07-13T02:30:36;16.10;99.90
25688;DHT22;17407;51.120;3.702;2023-07-13T02:33:01;16.20;99.90
25688;DHT22;17407;51.120;3.702;2023-07-13T02:35:27;16.20;99.90
25688;DHT22;17407;51.120;3.702;2023-07-13T02:37:53;16.20;99.90
25688;DHT22;17407;51.120;3.702;2023-07-13T02:40:19;16.10;99.90
25688;DHT22;17407;51.120;3.702;2023-07-13T02:42:44;16.10;99.90
25688;DHT22;17407;51.120;3.702;2023-07-13T02:45:10;16.10;99.90
25688;DHT22;17407;51.120;3.702;2023-07-13T02:47:38;16.00;99.90
25688;DHT22;17407;51.120;3.702;2023-07-13T02:50:04;16.00;99.90
25688;DHT22;17407;51.120;3.702;2023-07-13T02:52:29;15.90;99.90
25688;DHT22;17407;51.120;3.702;2023-07-13T02:54:55;16.00;99.90
25688;DHT22;17407;51.120;3.702;2023-07-13T02:57:21;15.90;99.90
25688;DHT22;17407;51.120;3.702;2023-07-13T02:59:46;15.90;99.90
25688;DHT22;17407;51.120;3.702;2023-07-13T03:02:12;16.00;99.90
25688;DHT22;17407;51.120;3.702;2023-07-13T03:04:38;15.90;99.90
25688;DHT22;17407;51.120;3.702;2023-07-13T03:07:06;15.80;99.90
25688;DHT22;17407;51.120;3.702;2023-07-13T03:09:35;15.80;99.90
25688;DHT22;17407;51.120;3.702;2023-07-13T03:12:01;15.80;99.90
25688;DHT22;17407;51.120;3.702;2023-07-13T03:14:27;15.80;99.90
25688;DHT22;17407;51.120;3.702;2023-07-13T03:16:53;15.90;99.90
25688;DHT22;17407;51.120;3.702;2023-07-13T03:19:19;15.90;99.90
25688;DHT22;17407;51.120;3.702;2023-07-13T03:21:45;15.80;99.90
25688;DHT22;17407;51.120;3.702;2023-07-13T03:24:10;15.90;99.90
25688;DHT22;17407;51.120;3.702;2023-07-13T03:26:36;15.90;99.90
25688;DHT22;17407;51.120;3.702;2023-07-13T03:29:02;15.90;99.90
25688;DHT22;17407;51.120;3.702;2023-07-13T03:31:34;15.80;99.90
25688;DHT22;17407;51.120;3.702;2023-07-13T03:34:00;15.80;99.90
25688;DHT22;17407;51.120;3.702;2023-07-13T03:36:28;15.70;99.90
25688;DHT22;17407;51.120;3.702;2023-07-13T03:38:57;15.80;99.90
25688;DHT22;17407;51.120;3.702;2023-07-13T03:41:25;15.90;99.90
25688;DHT22;17407;51.120;3.702;2023-07-13T03:43:51;15.80;99.90
25688;DHT22;17407;51.120;3.702;2023-07-13T03:46:17;15.70;99.90
25688;DHT22;17407;51.120;3.702;2023-07-13T03:48:45;15.70;99.90
25688;DHT22;17407;51.120;3.702;2023-07-13T03:51:11;15.80;99.90
25688;DHT22;17407;51.120;3.702;2023-07-13T03:53:40;15.80;99.90
25688;DHT22;17407;51.120;3.702;2023-07-13T03:56:07;15.70;99.90
25688;DHT22;17407;51.120;3.702;2023-07-13T03:58:34;15.70;99.90
25688;DHT22;17407;51.120;3.702;2023-07-13T04:01:01;15.80;99.90
25688;DHT22;17407;51.120;3.702;2023-07-13T04:03:28;15.70;99.90
25688;DHT22;17407;51.120;3.702;2023-07-13T04:05:55;15.80;99.90
25688;DHT22;17407;51.120;3.702;2023-07-13T04:08:27;15.90;99.90
25688;DHT22;17407;51.120;3.702;2023-07-13T04:10:52;15.90;99.90
25688;DHT22;17407;51.120;3.702;2023-07-13T04:13:18;16.00;99.90
25688;DHT22;17407;51.120;3.702;2023-07-13T04:15:43;16.00;99.90
25688;DHT22;17407;51.120;3.702;2023-07-13T04:18:09;16.00;99.90
25688;DHT22;17407;51.120;3.702;2023-07-13T04:20:35;16.10;99.90
25688;DHT22;17407;51.120;3.702;2023-07-13T04:23:00;16.10;99.90
25688;DHT22;17407;51.120;3.702;2023-07-13T04:25:26;16.20;99.90
25688;DHT22;17407;51.120;3.702;2023-07-13T04:27:53;16.20;99.90
25688;DHT22;17407;51.120;3.702;2023-07-13T04:30:20;16.20;99.90
25688;DHT22;17407;51.120;3.702;2023-07-13T04:32:45;16.30;99.90
25688;DHT22;17407;51.120;3.702;2023-07-13T04:35:11;16.40;99.90
25688;DHT22;17407;51.120;3.702;2023-07-13T04:37:37;16.40;99.90
25688;DHT22;17407;51.120;3.702;2023-07-13T04:40:03;16.40;99.90
25688;DHT22;17407;51.120;3.702;2023-07-13T04:42:29;16.50;99.90
25688;DHT22;17407;51.120;3.702;2023-07-13T04:44:55;16.50;99.90
25688;DHT22;17407;51.120;3.702;2023-07-13T04:47:21;16.50;99.90
25688;DHT22;17407;51.120;3.702;2023-07-13T04:49:46;16.60;99.90
25688;DHT22;17407;51.120;3.702;2023-07-13T04:52:12;16.60;99.90
25688;DHT22;17407;51.120;3.702;2023-07-13T04:54:38;16.70;99.90
25688;DHT22;17407;51.120;3.702;2023-07-13T04:57:05;16.70;99.90
25688;DHT22;17407;51.120;3.702;2023-07-13T04:59:34;16.70;99.90
25688;DHT22;17407;51.120;3.702;2023-07-13T05:02:01;16.70;99.90
25688;DHT22;17407;51.120;3.702;2023-07-13T05:04:27;16.70;99.90
25688;DHT22;17407;51.120;3.702;2023-07-13T05:06:53;16.80;99.90
25688;DHT22;17407;51.120;3.702;2023-07-13T05:09:19;16.80;99.90
25688;DHT22;17407;51.120;3.702;2023-07-13T05:11:44;16.70;99.90
25688;DHT22;17407;51.120;3.702;2023-07-13T05:14:10;16.90;99.90
25688;DHT22;17407;51.120;3.702;2023-07-13T05:16:36;16.80;99.90
25688;DHT22;17407;51.120;3.702;2023-07-13T05:19:02;16.90;99.90
25688;DHT22;17407;51.120;3.702;2023-07-13T05:21:28;17.00;99.90
25688;DHT22;17407;51.120;3.702;2023-07-13T05:23:54;17.20;99.90
25688;DHT22;17407;51.120;3.702;2023-07-13T05:26:20;17.20;99.90
25688;DHT22;17407;51.120;3.702;2023-07-13T05:28:46;17.30;99.90
25688;DHT22;17407;51.120;3.702;2023-07-13T05:31:12;17.10;99.90
25688;DHT22;17407;51.120;3.702;2023-07-13T05:33:38;17.30;99.90
25688;DHT22;17407;51.120;3.702;2023-07-13T05:36:04;17.20;99.90
25688;DHT22;17407;51.120;3.702;2023-07-13T05:38:30;17.30;99.90
25688;DHT22;17407;51.120;3.702;2023-07-13T05:40:56;17.50;99.90
25688;DHT22;17407;51.120;3.702;2023-07-13T05:43:23;17.60;99.90
25688;DHT22;17407;51.120;3.702;2023-07-13T05:45:49;17.70;99.90
25688;DHT22;17407;51.120;3.702;2023-07-13T05:48:15;17.80;99.90
25688;DHT22;17407;51.120;3.702;2023-07-13T05:50:41;17.80;99.90
25688;DHT22;17407;51.120;3.702;2023-07-13T05:53:06;17.80;99.90
25688;DHT22;17407;51.120;3.702;2023-07-13T05:55:32;17.90;99.90
25688;DHT22;17407;51.120;3.702;2023-07-13T05:57:59;17.90;99.90
25688;DHT22;17407;51.120;3.702;2023-07-13T06:00:25;18.00;99.90
25688;DHT22;17407;51.120;3.702;2023-07-13T06:02:51;18.10;99.90
25688;DHT22;17407;51.120;3.702;2023-07-13T06:05:17;18.10;99.90
25688;DHT22;17407;51.120;3.702;2023-07-13T06:07:42;18.00;99.90
25688;DHT22;17407;51.120;3.702;2023-07-13T06:10:08;18.20;99.90
25688;DHT22;17407;51.120;3.702;2023-07-13T06:12:34;18.30;99.90
25688;DHT22;17407;51.120;3.702;2023-07-13T06:15:00;18.30;99.90
25688;DHT22;17407;51.120;3.702;2023-07-13T06:17:26;18.40;99.90
25688;DHT22;17407;51.120;3.702;2023-07-13T06:19:51;18.50;99.90
25688;DHT22;17407;51.120;3.702;2023-07-13T06:22:17;18.40;99.90
25688;DHT22;17407;51.120;3.702;2023-07-13T06:24:43;18.40;99.90
25688;DHT22;17407;51.120;3.702;2023-07-13T06:27:08;18.40;99.90
25688;DHT22;17407;51.120;3.702;2023-07-13T06:29:34;18.60;99.90
25688;DHT22;17407;51.120;3.702;2023-07-13T06:31:59;18.80;99.90
25688;DHT22;17407;51.120;3.702;2023-07-13T06:34:25;18.70;99.90
25688;DHT22;17407;51.120;3.702;2023-07-13T06:36:51;18.80;99.90
25688;DHT22;17407;51.120;3.702;2023-07-13T06:39:17;19.00;99.90
25688;DHT22;17407;51.120;3.702;2023-07-13T06:41:42;18.90;99.90
25688;DHT22;17407;51.120;3.702;2023-07-13T06:44:08;18.90;99.90
25688;DHT22;17407;51.120;3.702;2023-07-13T06:46:34;18.90;99.90
25688;DHT22;17407;51.120;3.702;2023-07-13T06:48:59;18.90;99.90
25688;DHT22;17407;51.120;3.702;2023-07-13T06:51:25;18.90;99.90
25688;DHT22;17407;51.120;3.702;2023-07-13T06:53:51;19.10;99.90
25688;DHT22;17407;51.120;3.702;2023-07-13T06:56:17;19.10;99.90
25688;DHT22;17407;51.120;3.702;2023-07-13T06:58:43;19.30;99.90
25688;DHT22;17407;51.120;3.702;2023-07-13T07:01:09;19.30;99.90
25688;DHT22;17407;51.120;3.702;2023-07-13T07:03:34;19.30;99.90
25688;DHT22;17407;51.120;3.702;2023-07-13T07:06:15;19.40;99.90
25688;DHT22;17407;51.120;3.702;2023-07-13T07:08:41;19.50;99.90
25688;DHT22;17407;51.120;3.702;2023-07-13T07:11:11;19.60;99.90
25688;DHT22;17407;51.120;3.702;2023-07-13T07:13:36;19.70;99.90
25688;DHT22;17407;51.120;3.702;2023-07-13T07:16:11;19.90;99.90
25688;DHT22;17407;51.120;3.702;2023-07-13T07:18:45;20.00;99.90
25688;DHT22;17407;51.120;3.702;2023-07-13T07:21:11;20.20;99.90
25688;DHT22;17407;51.120;3.702;2023-07-13T07:23:37;20.20;99.90
25688;DHT22;17407;51.120;3.702;2023-07-13T07:26:02;20.20;99.90
25688;DHT22;17407;51.120;3.702;2023-07-13T07:28:28;20.40;99.90
25688;DHT22;17407;51.120;3.702;2023-07-13T07:30:55;20.40;99.90
25688;DHT22;17407;51.120;3.702;2023-07-13T07:33:21;20.40;99.90
25688;DHT22;17407;51.120;3.702;2023-07-13T07:35:47;20.40;99.90
25688;DHT22;17407;51.120;3.702;2023-07-13T07:38:13;20.50;99.90
25688;DHT22;17407;51.120;3.702;2023-07-13T07:40:40;20.40;99.90
25688;DHT22;17407;51.120;3.702;2023-07-13T07:43:09;20.30;99.90
25688;DHT22;17407;51.120;3.702;2023-07-13T07:45:35;20.60;99.90
25688;DHT22;17407;51.120;3.702;2023-07-13T07:48:03;20.80;99.90
25688;DHT22;17407;51.120;3.702;2023-07-13T07:50:29;20.90;99.90
25688;DHT22;17407;51.120;3.702;2023-07-13T07:52:55;20.90;99.90
25688;DHT22;17407;51.120;3.702;2023-07-13T07:55:21;20.90;99.90
25688;DHT22;17407;51.120;3.702;2023-07-13T07:57:48;21.00;99.90
25688;DHT22;17407;51.120;3.702;2023-07-13T08:00:14;21.10;99.90
25688;DHT22;17407;51.120;3.702;2023-07-13T08:02:40;21.20;99.90
25688;DHT22;17407;51.120;3.702;2023-07-13T08:05:07;21.40;99.90
25688;DHT22;17407;51.120;3.702;2023-07-13T08:07:33;21.20;99.90
25688;DHT22;17407;51.120;3.702;2023-07-13T08:09:59;21.40;99.90
25688;DHT22;17407;51.120;3.702;2023-07-13T08:12:25;21.40;99.90
25688;DHT22;17407;51.120;3.702;2023-07-13T08:14:51;21.40;99.90
25688;DHT22;17407;51.120;3.702;2023-07-13T08:17:20;21.40;99.90
25688;DHT22;17407;51.120;3.702;2023-07-13T08:19:46;21.50;99.90
25688;DHT22;17407;51.120;3.702;2023-07-13T08:22:11;21.60;99.90
25688;DHT22;17407;51.120;3.702;2023-07-13T08:24:38;21.50;99.90
25688;DHT22;17407;51.120;3.702;2023-07-13T08:27:03;21.70;99.90
25688;DHT22;17407;51.120;3.702;2023-07-13T08:29:29;21.90;99.90
25688;DHT22;17407;51.120;3.702;2023-07-13T08:31:57;22.00;99.90
25688;DHT22;17407;51.120;3.702;2023-07-13T08:34:23;22.20;99.90
25688;DHT22;17407;51.120;3.702;2023-07-13T08:36:49;22.20;99.90
25688;DHT22;17407;51.120;3.702;2023-07-13T08:39:15;22.30;99.90
25688;DHT22;17407;51.120;3.702;2023-07-13T08:41:40;22.40;99.90
25688;DHT22;17407;51.120;3.702;2023-07-13T08:44:16;22.40;99.90
25688;DHT22;17407;51.120;3.702;2023-07-13T08:46:45;22.50;99.90
25688;DHT22;17407;51.120;3.702;2023-07-13T08:49:15;22.70;99.90
25688;DHT22;17407;51.120;3.702;2023-07-13T08:51:50;22.90;99.90
25688;DHT22;17407;51.120;3.702;2023-07-13T08:54:41;23.00;99.90
25688;DHT22;17407;51.120;3.702;2023-07-13T08:57:17;23.00;99.90
25688;DHT22;17407;51.120;3.702;2023-07-13T08:59:44;22.80;99.90
25688;DHT22;17407;51.120;3.702;2023-07-13T09:02:28;22.80;99.90
25688;DHT22;17407;51.120;3.702;2023-07-13T09:05:04;22.70;99.90
25688;DHT22;17407;51.120;3.702;2023-07-13T09:10:37;22.80;99.90
25688;DHT22;17407;51.120;3.702;2023-07-13T09:15:47;23.00;99.90
25688;DHT22;17407;51.120;3.702;2023-07-13T09:18:25;23.30;99.90
25688;DHT22;17407;51.120;3.702;2023-07-13T09:21:02;23.40;99.90
25688;DHT22;17407;51.120;3.702;2023-07-13T09:23:29;23.30;99.90
25688;DHT22;17407;51.120;3.702;2023-07-13T09:26:23;23.20;99.90
25688;DHT22;17407;51.120;3.702;2023-07-13T09:28:53;23.20;99.90
25688;DHT22;17407;51.120;3.702;2023-07-13T09:31:28;23.20;99.90
25688;DHT22;17407;51.120;3.702;2023-07-13T09:33:56;23.20;99.90
25688;DHT22;17407;51.120;3.702;2023-07-13T09:36:30;23.50;99.90
25688;DHT22;17407;51.120;3.702;2023-07-13T09:41:57;24.00;99.90
25688;DHT22;17407;51.120;3.702;2023-07-13T09:44:37;24.30;99.90
25688;DHT22;17407;51.120;3.702;2023-07-13T09:47:16;24.40;99.90
25688;DHT22;17407;51.120;3.702;2023-07-13T09:49:42;24.90;99.90
25688;DHT22;17407;51.120;3.702;2023-07-13T09:52:12;24.90;99.90
25688;DHT22;17407;51.120;3.702;2023-07-13T09:54:43;24.70;99.90
25688;DHT22;17407;51.120;3.702;2023-07-13T09:57:16;24.80;99.90
25688;DHT22;17407;51.120;3.702;2023-07-13T09:59:47;24.80;99.90
25688;DHT22;17407;51.120;3.702;2023-07-13T10:04:56;25.10;99.90
25688;DHT22;17407;51.120;3.702;2023-07-13T10:07:24;25.40;99.90
25688;DHT22;17407;51.120;3.702;2023-07-13T10:09:57;25.60;99.90
25688;DHT22;17407;51.120;3.702;2023-07-13T10:12:24;25.50;99.90
25688;DHT22;17407;51.120;3.702;2023-07-13T10:15:00;25.30;99.90
25688;DHT22;17407;51.120;3.702;2023-07-13T10:17:29;25.00;99.90
25688;DHT22;17407;51.120;3.702;2023-07-13T10:20:01;24.90;99.90
25688;DHT22;17407;51.120;3.702;2023-07-13T10:23:13;24.80;99.90
25688;DHT22;17407;51.120;3.702;2023-07-13T10:25:24;24.60;99.90
25688;DHT22;17407;51.120;3.702;2023-07-13T10:27:53;23.80;99.90
25688;DHT22;17407;51.120;3.702;2023-07-13T10:30:34;23.10;99.90
25688;DHT22;17407;51.120;3.702;2023-07-13T10:38:16;21.50;99.90
25688;DHT22;17407;51.120;3.702;2023-07-13T10:43:22;20.70;99.90
25688;DHT22;17407;51.120;3.702;2023-07-13T10:45:50;20.20;99.90
25688;DHT22;17407;51.120;3.702;2023-07-13T10:48:17;19.80;99.90
25688;DHT22;17407;51.120;3.702;2023-07-13T10:53:22;19.10;99.90
25688;DHT22;17407;51.120;3.702;2023-07-13T10:58:22;18.90;99.90
25688;DHT22;17407;51.120;3.702;2023-07-13T11:37:03;21.40;99.90
25688;DHT22;17407;51.120;3.702;2023-07-13T11:39:35;21.50;99.90
25688;DHT22;17407;51.120;3.702;2023-07-13T11:42:06;21.60;99.90
25688;DHT22;17407;51.120;3.702;2023-07-13T11:44:34;21.90;99.90
25688;DHT22;17407;51.120;3.702;2023-07-13T11:47:10;22.10;99.90
25688;DHT22;17407;51.120;3.702;2023-07-13T11:49:44;22.40;99.90
25688;DHT22;17407;51.120;3.702;2023-07-13T11:52:21;22.60;99.90
25688;DHT22;17407;51.120;3.702;2023-07-13T11:54:54;22.80;99.90
25688;DHT22;17407;51.120;3.702;2023-07-13T11:59:56;22.90;99.90
25688;DHT22;17407;51.120;3.702;2023-07-13T12:02:31;22.80;99.90
25688;DHT22;17407;51.120;3.702;2023-07-13T12:04:59;22.70;99.90
25688;DHT22;17407;51.120;3.702;2023-07-13T12:07:28;22.60;99.90
25688;DHT22;17407;51.120;3.702;2023-07-13T12:10:01;22.60;99.90
25688;DHT22;17407;51.120;3.702;2023-07-13T12:12:29;22.90;99.90
25688;DHT22;17407;51.120;3.702;2023-07-13T12:14:55;23.10;99.90
25688;DHT22;17407;51.120;3.702;2023-07-13T12:17:25;23.20;99.90
25688;DHT22;17407;51.120;3.702;2023-07-13T12:19:52;23.10;99.90
25688;DHT22;17407;51.120;3.702;2023-07-13T12:22:19;23.00;99.90
25688;DHT22;17407;51.120;3.702;2023-07-13T12:24:46;23.10;99.90
25688;DHT22;17407;51.120;3.702;2023-07-13T12:27:23;23.40;99.90
25688;DHT22;17407;51.120;3.702;2023-07-13T12:30:04;23.60;99.90
25688;DHT22;17407;51.120;3.702;2023-07-13T12:32:31;23.70;99.90
25688;DHT22;17407;51.120;3.702;2023-07-13T12:35:15;24.00;99.90
25688;DHT22;17407;51.120;3.702;2023-07-13T12:37:46;24.20;99.90
25688;DHT22;17407;51.120;3.702;2023-07-13T12:40:20;24.40;99.90
25688;DHT22;17407;51.120;3.702;2023-07-13T12:42:49;24.70;99.90
25688;DHT22;17407;51.120;3.702;2023-07-13T12:45:26;24.90;99.90
25688;DHT22;17407;51.120;3.702;2023-07-13T12:47:56;24.90;99.90
25688;DHT22;17407;51.120;3.702;2023-07-13T12:50:30;24.80;99.90
25688;DHT22;17407;51.120;3.702;2023-07-13T12:53:01;24.90;99.90
25688;DHT22;17407;51.120;3.702;2023-07-13T12:55:29;24.70;99.90
25688;DHT22;17407;51.120;3.702;2023-07-13T12:57:59;24.80;99.90
25688;DHT22;17407;51.120;3.702;2023-07-13T13:00:31;24.80;99.90
25688;DHT22;17407;51.120;3.702;2023-07-13T13:03:12;24.90;99.90
25688;DHT22;17407;51.120;3.702;2023-07-13T13:05:42;25.00;99.90
25688;DHT22;17407;51.120;3.702;2023-07-13T13:08:11;25.00;99.90
25688;DHT22;17407;51.120;3.702;2023-07-13T13:10:37;25.30;99.90
25688;DHT22;17407;51.120;3.702;2023-07-13T13:13:03;25.60;99.90
25688;DHT22;17407;51.120;3.702;2023-07-13T13:15:28;25.90;99.90
25688;DHT22;17407;51.120;3.702;2023-07-13T13:17:55;26.00;99.90
25688;DHT22;17407;51.120;3.702;2023-07-13T13:20:22;26.00;99.90
25688;DHT22;17407;51.120;3.702;2023-07-13T13:22:48;26.00;99.90
25688;DHT22;17407;51.120;3.702;2023-07-13T13:25:15;26.00;99.90
25688;DHT22;17407;51.120;3.702;2023-07-13T13:27:41;25.70;99.90
25688;DHT22;17407;51.120;3.702;2023-07-13T13:30:18;25.70;99.90
25688;DHT22;17407;51.120;3.702;2023-07-13T13:32:48;25.90;99.90
25688;DHT22;17407;51.120;3.702;2023-07-13T13:35:19;25.90;99.90
25688;DHT22;17407;51.120;3.702;2023-07-13T13:37:46;26.00;99.90
25688;DHT22;17407;51.120;3.702;2023-07-13T13:40:19;26.00;99.90
25688;DHT22;17407;51.120;3.702;2023-07-13T13:42:45;26.00;99.90
25688;DHT22;17407;51.120;3.702;2023-07-13T13:45:11;25.60;99.90
25688;DHT22;17407;51.120;3.702;2023-07-13T13:47:43;25.40;99.90
25688;DHT22;17407;51.120;3.702;2023-07-13T13:50:17;25.30;99.90
25688;DHT22;17407;51.120;3.702;2023-07-13T13:52:44;25.30;99.90
25688;DHT22;17407;51.120;3.702;2023-07-13T13:55:18;25.50;99.90
25688;DHT22;17407;51.120;3.702;2023-07-13T13:57:48;25.50;99.90
25688;DHT22;17407;51.120;3.702;2023-07-13T14:00:15;25.60;99.90
25688;DHT22;17407;51.120;3.702;2023-07-13T14:02:45;25.60;99.90
25688;DHT22;17407;51.120;3.702;2023-07-13T14:05:22;25.60;99.90
25688;DHT22;17407;51.120;3.702;2023-07-13T14:07:48;25.50;99.90
25688;DHT22;17407;51.120;3.702;2023-07-13T14:10:16;25.30;99.90
25688;DHT22;17407;51.120;3.702;2023-07-13T14:12:43;25.50;99.90
25688;DHT22;17407;51.120;3.702;2023-07-13T14:15:25;25.70;99.90
25688;DHT22;17407;51.120;3.702;2023-07-13T14:17:53;25.90;99.90
25688;DHT22;17407;51.120;3.702;2023-07-13T14:20:20;26.00;99.90
25688;DHT22;17407;51.120;3.702;2023-07-13T14:22:48;26.10;99.90
25688;DHT22;17407;51.120;3.702;2023-07-13T14:25:15;26.10;99.90
25688;DHT22;17407;51.120;3.702;2023-07-13T14:27:43;26.10;99.90
25688;DHT22;17407;51.120;3.702;2023-07-13T14:30:17;26.10;99.90
25688;DHT22;17407;51.120;3.702;2023-07-13T14:32:44;26.30;99.90
25688;DHT22;17407;51.120;3.702;2023-07-13T14:35:12;26.40;99.90
25688;DHT22;17407;51.120;3.702;2023-07-13T14:37:38;26.20;99.90
25688;DHT22;17407;51.120;3.702;2023-07-13T14:40:16;25.90;99.90
25688;DHT22;17407;51.120;3.702;2023-07-13T14:42:42;26.10;99.90
25688;DHT22;17407;51.120;3.702;2023-07-13T14:45:19;26.00;99.90
25688;DHT22;17407;51.120;3.702;2023-07-13T14:47:45;26.00;99.90
25688;DHT22;17407;51.120;3.702;2023-07-13T14:50:32;26.00;99.90
25688;DHT22;17407;51.120;3.702;2023-07-13T14:53:00;25.90;99.90
25688;DHT22;17407;51.120;3.702;2023-07-13T14:55:26;25.80;99.90
25688;DHT22;17407;51.120;3.702;2023-07-13T14:57:52;25.70;99.90
25688;DHT22;17407;51.120;3.702;2023-07-13T15:00:22;25.70;99.90
25688;DHT22;17407;51.120;3.702;2023-07-13T15:02:53;25.70;99.90
25688;DHT22;17407;51.120;3.702;2023-07-13T15:05:25;25.80;99.90
25688;DHT22;17407;51.120;3.702;2023-07-13T15:07:52;25.90;99.90
25688;DHT22;17407;51.120;3.702;2023-07-13T15:10:23;25.70;99.90
25688;DHT22;17407;51.120;3.702;2023-07-13T15:12:51;25.70;99.90
25688;DHT22;17407;51.120;3.702;2023-07-13T15:15:17;25.90;99.90
25688;DHT22;17407;51.120;3.702;2023-07-13T15:17:47;26.00;99.90
25688;DHT22;17407;51.120;3.702;2023-07-13T15:22:51;26.00;99.90
25688;DHT22;17407;51.120;3.702;2023-07-13T15:25:25;26.10;99.90
25688;DHT22;17407;51.120;3.702;2023-07-13T15:27:53;26.30;99.90
25688;DHT22;17407;51.120;3.702;2023-07-13T15:30:19;26.30;99.90
25688;DHT22;17407;51.120;3.702;2023-07-13T15:32:46;26.40;99.90
25688;DHT22;17407;51.120;3.702;2023-07-13T15:35:17;26.30;99.90
25688;DHT22;17407;51.120;3.702;2023-07-13T15:37:43;26.20;99.90
25688;DHT22;17407;51.120;3.702;2023-07-13T15:40:11;26.20;99.90
25688;DHT22;17407;51.120;3.702;2023-07-13T15:42:38;26.20;99.90
25688;DHT22;17407;51.120;3.702;2023-07-13T15:45:21;26.30;99.90
25688;DHT22;17407;51.120;3.702;2023-07-13T15:47:48;26.50;99.90
25688;DHT22;17407;51.120;3.702;2023-07-13T15:50:24;26.50;99.90
25688;DHT22;17407;51.120;3.702;2023-07-13T15:52:55;26.30;99.90
25688;DHT22;17407;51.120;3.702;2023-07-13T15:55:23;26.30;99.90
25688;DHT22;17407;51.120;3.702;2023-07-13T15:57:51;26.30;99.90
25688;DHT22;17407;51.120;3.702;2023-07-13T16:00:25;26.40;99.30
25688;DHT22;17407;51.120;3.702;2023-07-13T16:02:52;26.30;99.30
25688;DHT22;17407;51.120;3.702;2023-07-13T16:05:18;26.00;99.70
25688;DHT22;17407;51.120;3.702;2023-07-13T16:07:46;26.00;99.80
25688;DHT22;17407;51.120;3.702;2023-07-13T16:10:17;26.00;99.90
25688;DHT22;17407;51.120;3.702;2023-07-13T16:12:44;26.10;99.90
25688;DHT22;17407;51.120;3.702;2023-07-13T16:15:16;26.20;99.20
25688;DHT22;17407;51.120;3.702;2023-07-13T16:17:42;26.30;98.80
25688;DHT22;17407;51.120;3.702;2023-07-13T16:20:09;26.20;99.00
25688;DHT22;17407;51.120;3.702;2023-07-13T16:22:45;26.20;99.90
25688;DHT22;17407;51.120;3.702;2023-07-13T16:25:23;26.30;99.90
25688;DHT22;17407;51.120;3.702;2023-07-13T16:27:53;26.30;99.10
25688;DHT22;17407;51.120;3.702;2023-07-13T16:30:23;26.30;99.40
25688;DHT22;17407;51.120;3.702;2023-07-13T16:32:53;26.20;99.40
25688;DHT22;17407;51.120;3.702;2023-07-13T16:35:21;26.20;99.70
25688;DHT22;17407;51.120;3.702;2023-07-13T16:37:47;26.20;99.00
25688;DHT22;17407;51.120;3.702;2023-07-13T16:40:33;26.00;99.50
25688;DHT22;17407;51.120;3.702;2023-07-13T16:43:00;25.50;99.90